createdAt,value
2023-04-10T00:00:57.580Z,102253.50
2023-04-10T00:03:28.228Z,102249.91
2023-04-10T00:06:00.562Z,102243.72
2023-04-10T00:08:30.382Z,102236.19
2023-04-10T00:10:59.936Z,102221.47
2023-04-10T00:13:29.736Z,102224.50
2023-04-10T00:15:59.195Z,102210.41
2023-04-10T00:18:28.877Z,102205.19
2023-04-10T00:21:00.969Z,102204.13
2023-04-10T00:23:32.022Z,102202.97
2023-04-10T00:26:01.627Z,102194.94
2023-04-10T00:28:31.145Z,102197.50
2023-04-10T00:31:00.663Z,102189.94
2023-04-10T00:33:30.137Z,102182.78
2023-04-10T00:36:02.233Z,102176.94
2023-04-10T00:38:31.743Z,102180.53
2023-04-10T00:41:01.323Z,102173.63
2023-04-10T00:43:30.876Z,102172.09
2023-04-10T00:46:00.467Z,102157.22
2023-04-10T00:48:30.081Z,102156.97
2023-04-10T00:51:02.366Z,102161.41
2023-04-10T00:53:32.410Z,102159.75
2023-04-10T00:56:02.065Z,102153.13
2023-04-10T00:58:31.570Z,102143.03
2023-04-10T01:01:02.264Z,102145.91
2023-04-10T01:03:32.100Z,102141.56
2023-04-10T01:06:08.966Z,102140.81
2023-04-10T01:08:44.178Z,102133.50
2023-04-10T01:11:17.712Z,102126.50
2023-04-10T01:13:54.566Z,102130.72
2023-04-10T01:16:29.860Z,102127.00
2023-04-10T01:19:02.916Z,102126.59
2023-04-10T01:21:36.891Z,102129.94
2023-04-10T01:24:24.851Z,102121.88
2023-04-10T01:27:11.519Z,102122.66
2023-04-10T01:29:46.203Z,102125.97
2023-04-10T01:32:18.012Z,102119.84
2023-04-10T01:34:48.751Z,102117.69
2023-04-10T01:37:21.118Z,102109.13
2023-04-10T01:39:54.041Z,102111.84
2023-04-10T01:42:24.006Z,102104.50
2023-04-10T01:44:56.799Z,102104.38
2023-04-10T01:47:28.214Z,102094.94
2023-04-10T01:49:58.077Z,102095.47
2023-04-10T01:52:28.166Z,102085.38
2023-04-10T01:54:57.881Z,102085.38
2023-04-10T01:57:27.552Z,102081.00
2023-04-10T01:59:59.678Z,102083.34
2023-04-10T02:02:33.722Z,102075.66
2023-04-10T02:05:03.856Z,102070.78
2023-04-10T02:07:38.858Z,102074.88
2023-04-10T02:10:13.295Z,102059.03
2023-04-10T02:12:47.210Z,102072.34
2023-04-10T02:15:19.909Z,102068.00
2023-04-10T02:17:49.441Z,102068.22
2023-04-10T02:20:19.112Z,102067.47
2023-04-10T02:22:48.811Z,102070.16
2023-04-10T02:25:19.114Z,102068.75
2023-04-10T02:27:48.581Z,102069.03
2023-04-10T02:30:20.826Z,102066.72
2023-04-10T02:32:50.355Z,102072.84
2023-04-10T02:35:20.057Z,102075.41
2023-04-10T02:37:50.871Z,102078.22
2023-04-10T02:40:20.442Z,102076.19
2023-04-10T02:42:49.963Z,102081.31
2023-04-10T02:45:22.084Z,102084.25
2023-04-10T02:47:51.981Z,102064.78
2023-04-10T02:50:21.646Z,102074.13
2023-04-10T02:52:51.377Z,102073.88
2023-04-10T02:55:21.115Z,102067.22
2023-04-10T02:57:50.568Z,102074.34
2023-04-10T03:00:23.154Z,102068.22
2023-04-10T03:02:53.845Z,102059.03
2023-04-10T03:05:23.796Z,102049.56
2023-04-10T03:07:54.375Z,102054.16
2023-04-10T03:10:24.725Z,102051.59
2023-04-10T03:12:54.236Z,102044.97
2023-04-10T03:15:26.607Z,102046.34
2023-04-10T03:17:56.790Z,102050.75
2023-04-10T03:20:26.636Z,102049.50
2023-04-10T03:22:56.163Z,102043.84
2023-04-10T03:25:25.944Z,102037.72
2023-04-10T03:27:55.655Z,102031.69
2023-04-10T03:30:27.847Z,102027.13
2023-04-10T03:32:57.396Z,102017.31
2023-04-10T03:35:26.905Z,102019.84
2023-04-10T03:37:56.424Z,102014.09
2023-04-10T03:40:26.620Z,102010.88
2023-04-10T03:42:56.113Z,102014.47
2023-04-10T03:45:28.240Z,102013.34
2023-04-10T03:47:57.808Z,102015.78
2023-04-10T03:50:27.299Z,102014.00
2023-04-10T03:52:56.792Z,102015.13
2023-04-10T03:55:26.285Z,102008.50
2023-04-10T03:57:56.133Z,102012.47
2023-04-10T04:00:28.829Z,102009.13
2023-04-10T04:02:58.937Z,102011.16
2023-04-10T04:05:31.012Z,102011.94
2023-04-10T04:08:00.652Z,102012.53
2023-04-10T04:10:30.130Z,102020.34
2023-04-10T04:12:59.629Z,102028.94
2023-04-10T04:15:31.716Z,102022.91
2023-04-10T04:18:01.253Z,102029.28
2023-04-10T04:20:30.796Z,102024.91
2023-04-10T04:23:00.477Z,102026.47
2023-04-10T04:25:30.084Z,102025.31
2023-04-10T04:27:59.606Z,102029.50
2023-04-10T04:30:31.875Z,102027.69
2023-04-10T04:33:01.426Z,102025.38
2023-04-10T04:35:31.083Z,102019.88
2023-04-10T04:38:00.644Z,102016.81
2023-04-10T04:40:30.122Z,102011.50
2023-04-10T04:42:59.609Z,102014.97
2023-04-10T04:45:32.358Z,102009.31
2023-04-10T04:48:01.954Z,102008.19
2023-04-10T04:50:31.514Z,102010.38
2023-04-10T04:53:00.992Z,102012.13
2023-04-10T04:55:30.544Z,102017.63
2023-04-10T04:58:00.111Z,102014.03
2023-04-10T05:00:32.272Z,102014.97
2023-04-10T05:03:02.194Z,102022.38
2023-04-10T05:05:31.763Z,102034.91
2023-04-10T05:08:01.286Z,102030.06
2023-04-10T05:10:30.803Z,102026.72
2023-04-10T05:13:00.458Z,102032.75
2023-04-10T05:15:32.638Z,102032.38
2023-04-10T05:18:02.356Z,102040.47
2023-04-10T05:20:32.080Z,102035.72
2023-04-10T05:23:01.691Z,102034.44
2023-04-10T05:25:31.295Z,102048.53
2023-04-10T05:28:00.857Z,102033.94
2023-04-10T05:30:32.919Z,102037.53
2023-04-10T05:33:02.488Z,102048.25
2023-04-10T05:35:31.976Z,102043.66
2023-04-10T05:38:01.839Z,102043.44
2023-04-10T05:40:32.719Z,102033.78
2023-04-10T05:43:02.256Z,102025.13
2023-04-10T05:45:34.408Z,102030.53
2023-04-10T05:48:03.879Z,102039.63
2023-04-10T05:50:33.439Z,102054.28
2023-04-10T05:53:02.925Z,102062.59
2023-04-10T05:55:34.011Z,102082.72
2023-04-10T05:58:03.489Z,102097.31
2023-04-10T06:00:35.657Z,102114.69
2023-04-10T06:03:05.316Z,102128.13
2023-04-10T06:05:37.794Z,102151.13
2023-04-10T06:08:07.661Z,102170.69
2023-04-10T06:10:37.152Z,102172.25
2023-04-10T06:13:07.752Z,102183.66
2023-04-10T06:15:41.388Z,102202.81
2023-04-10T06:18:11.063Z,102198.41
2023-04-10T06:20:40.814Z,102219.28
2023-04-10T06:23:10.466Z,102249.69
2023-04-10T06:25:39.954Z,102256.41
2023-04-10T06:28:09.493Z,102273.91
2023-04-10T06:30:41.530Z,102295.56
2023-04-10T06:33:11.053Z,102322.47
2023-04-10T06:35:40.793Z,102309.22
2023-04-10T06:38:10.532Z,102321.56
2023-04-10T06:40:40.116Z,102307.44
2023-04-10T06:43:09.585Z,102309.28
2023-04-10T06:45:41.742Z,102322.06
2023-04-10T06:48:11.260Z,102334.09
2023-04-10T06:50:40.818Z,102360.06
2023-04-10T06:53:10.402Z,102387.53
2023-04-10T06:55:40.509Z,102418.19
2023-04-10T06:58:10.132Z,102425.03
2023-04-10T07:00:42.255Z,102439.28
2023-04-10T07:03:11.789Z,102455.69
2023-04-10T07:05:42.326Z,102468.16
2023-04-10T07:08:11.994Z,102467.25
2023-04-10T07:10:41.514Z,102460.38
2023-04-10T07:13:11.017Z,102468.56
2023-04-10T07:15:43.105Z,102465.41
2023-04-10T07:18:12.595Z,102463.19
2023-04-10T07:20:42.095Z,102470.75
2023-04-10T07:23:11.926Z,102457.78
2023-04-10T07:25:41.518Z,102455.19
2023-04-10T07:28:11.355Z,102453.31
2023-04-10T07:30:43.432Z,102443.63
2023-04-10T07:33:13.130Z,102442.69
2023-04-10T07:35:42.852Z,102427.25
2023-04-10T07:38:13.595Z,102404.16
2023-04-10T07:40:43.129Z,102362.41
2023-04-10T07:43:12.658Z,102356.66
2023-04-10T07:45:44.735Z,102339.50
2023-04-10T07:48:14.383Z,102336.84
2023-04-10T07:50:43.879Z,102305.09
2023-04-10T07:53:13.367Z,102273.72
2023-04-10T07:55:42.945Z,102239.38
2023-04-10T07:58:12.766Z,102218.63
2023-04-10T08:00:44.906Z,102231.00
2023-04-10T08:03:15.018Z,102161.69
2023-04-10T08:05:44.644Z,102117.84
2023-04-10T08:08:14.272Z,102093.31
2023-04-10T08:10:43.768Z,102021.34
2023-04-10T08:13:13.315Z,102004.78
2023-04-10T08:15:45.544Z,101965.66
2023-04-10T08:18:15.073Z,101945.72
2023-04-10T08:20:44.607Z,101963.88
2023-04-10T08:23:20.367Z,101874.28
2023-04-10T08:25:50.105Z,101826.78
2023-04-10T08:28:21.124Z,101794.63
2023-04-10T08:30:53.266Z,101795.59
2023-04-10T08:33:22.844Z,101819.66
2023-04-10T08:35:52.336Z,101815.16
2023-04-10T08:38:23.922Z,101742.75
2023-04-10T08:40:53.448Z,101716.13
2023-04-10T08:43:22.969Z,101710.59
2023-04-10T08:45:55.620Z,101667.78
2023-04-10T08:48:29.480Z,101675.72
2023-04-10T08:51:00.997Z,101662.50
2023-04-10T08:53:34.034Z,101572.03
2023-04-10T08:56:05.676Z,101511.69
2023-04-10T08:58:35.892Z,101512.88
2023-04-10T09:01:08.425Z,101508.00
2023-04-10T09:03:38.144Z,101490.72
2023-04-10T09:06:08.668Z,101478.56
2023-04-10T09:08:38.292Z,101451.63
2023-04-10T09:11:08.689Z,101452.72
2023-04-10T09:13:40.427Z,101376.50
2023-04-10T09:16:13.511Z,101383.09
2023-04-10T09:18:48.378Z,101352.69
2023-04-10T09:21:19.347Z,101366.25
2023-04-10T09:23:50.643Z,101352.09
2023-04-10T09:26:27.886Z,101301.34
2023-04-10T09:29:02.229Z,101288.97
2023-04-10T09:31:36.700Z,101260.75
2023-04-10T09:34:14.812Z,101258.16
2023-04-10T09:36:44.847Z,101260.91
2023-04-10T09:39:15.781Z,101251.56
2023-04-10T09:41:52.983Z,101240.31
2023-04-10T09:44:31.936Z,101240.03
2023-04-10T09:47:19.251Z,101233.91
2023-04-10T09:49:50.152Z,101227.19
2023-04-10T09:52:24.915Z,101236.19
2023-04-10T09:54:54.808Z,101245.75
2023-04-10T09:57:25.671Z,101244.59
2023-04-10T09:59:56.097Z,101250.31
2023-04-10T10:02:29.245Z,101259.44
2023-04-10T10:05:00.879Z,101281.38
2023-04-10T10:07:30.569Z,101298.75
2023-04-10T10:10:01.708Z,101333.19
2023-04-10T10:12:34.189Z,101373.25
2023-04-10T10:15:06.208Z,101358.94
2023-04-10T10:17:42.341Z,101382.66
2023-04-10T10:20:13.444Z,101373.28
2023-04-10T10:22:43.191Z,101368.63
2023-04-10T10:25:13.521Z,101378.06
2023-04-10T10:27:43.338Z,101419.59
2023-04-10T10:30:25.690Z,101466.53
2023-04-10T10:33:01.481Z,101499.22
2023-04-10T10:35:31.074Z,101478.16
2023-04-10T10:38:01.759Z,101509.31
2023-04-10T10:40:34.749Z,101529.09
2023-04-10T10:43:13.522Z,101538.22
2023-04-10T10:45:45.883Z,101535.56
2023-04-10T10:48:18.047Z,101534.91
2023-04-10T10:50:57.228Z,101532.50
2023-04-10T10:53:40.874Z,101545.97
2023-04-10T10:56:37.897Z,101559.16
2023-04-10T10:59:07.457Z,101552.25
2023-04-10T11:01:36.980Z,101545.84
2023-04-10T11:04:36.461Z,101554.16
2023-04-10T11:07:08.576Z,101548.63
2023-04-10T11:09:49.229Z,101543.19
2023-04-10T11:12:19.151Z,101534.31
2023-04-10T11:14:59.687Z,101532.19
2023-04-10T11:17:52.151Z,101528.06
2023-04-10T11:20:27.331Z,101533.25
2023-04-10T11:23:20.581Z,101529.13
2023-04-10T11:25:52.110Z,101510.63
2023-04-10T11:28:36.936Z,101506.44
2023-04-10T11:31:20.165Z,101512.19
2023-04-10T11:33:50.520Z,101504.97
2023-04-10T11:36:20.590Z,101505.03
2023-04-10T11:38:59.793Z,101492.25
2023-04-10T11:41:31.484Z,101501.81
2023-04-10T11:44:01.847Z,101480.91
2023-04-10T11:46:31.767Z,101487.22
2023-04-10T11:49:02.632Z,101476.97
2023-04-10T11:51:32.319Z,101480.78
2023-04-10T11:54:11.953Z,101468.81
2023-04-10T11:56:42.978Z,101461.75
2023-04-10T11:59:14.600Z,101455.41
2023-04-10T12:01:44.211Z,101463.47
2023-04-10T12:04:18.438Z,101447.03
2023-04-10T12:06:48.491Z,101439.94
2023-04-10T12:09:22.269Z,101437.69
2023-04-10T12:11:53.499Z,101423.94
2023-04-10T12:14:23.820Z,101407.88
2023-04-10T12:16:54.222Z,101418.09
2023-04-10T12:19:24.198Z,101394.94
2023-04-10T12:21:53.689Z,101405.72
2023-04-10T12:24:47.492Z,101395.78
2023-04-10T12:27:20.547Z,101403.34
2023-04-10T12:29:50.818Z,101407.50
2023-04-10T12:32:20.802Z,101394.16
2023-04-10T12:34:53.515Z,101405.13
2023-04-10T12:37:23.131Z,101395.22
2023-04-10T12:39:55.549Z,101380.75
2023-04-10T12:42:26.388Z,101389.34
2023-04-10T12:44:57.017Z,101377.84
2023-04-10T12:47:26.990Z,101378.91
2023-04-10T12:50:06.315Z,101375.91
2023-04-10T12:52:36.251Z,101371.16
2023-04-10T12:55:19.918Z,101365.50
2023-04-10T12:57:52.113Z,101354.94
2023-04-10T13:00:22.779Z,101348.72
2023-04-10T13:02:52.461Z,101333.47
2023-04-10T13:05:22.295Z,101338.47
2023-04-10T13:07:53.066Z,101333.84
2023-04-10T13:10:25.429Z,101323.75
2023-04-10T13:12:54.910Z,101335.28
2023-04-10T13:15:24.599Z,101305.69
2023-04-10T13:17:54.163Z,101307.88
2023-04-10T13:20:24.533Z,101308.25
2023-04-10T13:22:54.064Z,101296.44
2023-04-10T13:25:27.790Z,101302.13
2023-04-10T13:27:57.288Z,101297.53
2023-04-10T13:30:26.834Z,101290.22
2023-04-10T13:32:56.425Z,101287.84
2023-04-10T13:35:25.935Z,101281.50
2023-04-10T13:37:55.581Z,101265.28
2023-04-10T13:40:27.757Z,101263.69
2023-04-10T13:42:57.320Z,101250.81
2023-04-10T13:45:26.891Z,101260.16
2023-04-10T13:47:56.468Z,101251.38
2023-04-10T13:50:26.029Z,101239.47
2023-04-10T13:52:55.533Z,101235.59
2023-04-10T13:55:27.785Z,101225.69
2023-04-10T13:57:57.315Z,101217.03
2023-04-10T14:00:26.923Z,101205.69
2023-04-10T14:02:56.655Z,101192.66
2023-04-10T14:05:26.298Z,101196.72
2023-04-10T14:07:57.125Z,101195.44
2023-04-10T14:10:29.314Z,101186.50
2023-04-10T14:12:59.020Z,101178.34
2023-04-10T14:15:28.561Z,101177.75
2023-04-10T14:17:58.082Z,101178.13
2023-04-10T14:20:27.679Z,101173.88
2023-04-10T14:22:57.198Z,101178.94
2023-04-10T14:25:29.307Z,101177.91
2023-04-10T14:27:59.475Z,101168.94
2023-04-10T14:30:31.102Z,101157.84
2023-04-10T14:33:00.764Z,101153.50
2023-04-10T14:35:30.482Z,101142.66
2023-04-10T14:38:00.050Z,101147.53
2023-04-10T14:40:32.150Z,101137.44
2023-04-10T14:43:01.746Z,101125.28
2023-04-10T14:45:32.796Z,101120.69
2023-04-10T14:48:02.443Z,101111.13
2023-04-10T14:50:34.257Z,101116.56
2023-04-10T14:53:03.829Z,101106.28
2023-04-10T14:55:36.029Z,101093.16
2023-04-10T14:58:06.905Z,101081.28
2023-04-10T15:00:36.381Z,101079.25
2023-04-10T15:03:06.163Z,101074.25
2023-04-10T15:05:35.943Z,101070.50
2023-04-10T15:08:05.507Z,101075.19
2023-04-10T15:10:37.560Z,101070.22
2023-04-10T15:13:07.034Z,101057.09
2023-04-10T15:15:36.553Z,101058.97
2023-04-10T15:18:06.261Z,101059.78
2023-04-10T15:20:35.833Z,101056.56
2023-04-10T15:23:05.302Z,101052.94
2023-04-10T15:25:37.945Z,101041.88
2023-04-10T15:28:08.394Z,101038.00
2023-04-10T15:30:37.917Z,101026.66
2023-04-10T15:33:07.477Z,101020.41
2023-04-10T15:35:37.217Z,101016.69
2023-04-10T15:38:09.901Z,101005.41
2023-04-10T15:40:42.292Z,101014.41
2023-04-10T15:43:11.799Z,100989.97
2023-04-10T15:45:41.713Z,100991.19
2023-04-10T15:48:11.227Z,100971.69
2023-04-10T15:50:40.858Z,100968.25
2023-04-10T15:53:10.352Z,100960.34
2023-04-10T15:55:44.453Z,100960.28
2023-04-10T15:58:13.964Z,100964.19
2023-04-10T16:00:43.528Z,100957.94
2023-04-10T16:03:13.230Z,100950.06
2023-04-10T16:05:42.836Z,100948.88
2023-04-10T16:08:12.336Z,100946.97
2023-04-10T16:10:44.449Z,100934.41
2023-04-10T16:13:13.958Z,100930.91
2023-04-10T16:15:43.595Z,100931.28
2023-04-10T16:18:13.093Z,100932.22
2023-04-10T16:20:43.742Z,100927.72
2023-04-10T16:23:13.382Z,100912.72
2023-04-10T16:25:45.512Z,100910.97
2023-04-10T16:28:15.006Z,100904.03
2023-04-10T16:30:44.487Z,100917.88
2023-04-10T16:33:14.006Z,100905.63
2023-04-10T16:35:43.571Z,100901.91
2023-04-10T16:38:13.141Z,100894.75
2023-04-10T16:40:45.217Z,100884.28
2023-04-10T16:43:14.910Z,100885.09
2023-04-10T16:45:44.386Z,100883.44
2023-04-10T16:48:13.863Z,100867.00
2023-04-10T16:50:43.376Z,100861.41
2023-04-10T16:53:12.883Z,100853.41
2023-04-10T16:55:45.026Z,100846.25
2023-04-10T16:58:14.572Z,100824.38
2023-04-10T17:00:44.079Z,100820.66
2023-04-10T17:03:13.612Z,100808.47
2023-04-10T17:05:43.160Z,100817.97
2023-04-10T17:08:12.685Z,100801.50
2023-04-10T17:10:44.762Z,100806.59
2023-04-10T17:13:14.244Z,100789.97
2023-04-10T17:15:43.749Z,100782.09
2023-04-10T17:18:13.390Z,100768.38
2023-04-10T17:20:42.956Z,100766.59
2023-04-10T17:23:12.447Z,100767.44
2023-04-10T17:25:45.014Z,100768.28
2023-04-10T17:28:14.619Z,100762.81
2023-04-10T17:30:45.751Z,100761.13
2023-04-10T17:33:15.240Z,100760.28
2023-04-10T17:35:44.967Z,100751.66
2023-04-10T17:38:14.564Z,100751.50
2023-04-10T17:40:46.654Z,100749.69
2023-04-10T17:43:16.177Z,100743.59
2023-04-10T17:45:45.851Z,100732.22
2023-04-10T17:48:15.408Z,100715.69
2023-04-10T17:50:44.918Z,100712.03
2023-04-10T17:53:14.428Z,100698.84
2023-04-10T17:55:48.051Z,100681.34
2023-04-10T17:58:17.507Z,100673.66
2023-04-10T18:00:46.982Z,100676.06
2023-04-10T18:03:16.595Z,100668.19
2023-04-10T18:05:46.157Z,100668.13
2023-04-10T18:08:16.161Z,100667.19
2023-04-10T18:10:48.709Z,100661.09
2023-04-10T18:13:18.316Z,100652.19
2023-04-10T18:15:47.789Z,100653.94
2023-04-10T18:18:17.240Z,100621.94
2023-04-10T18:20:46.758Z,100635.53
2023-04-10T18:23:16.305Z,100633.03
2023-04-10T18:25:54.764Z,100624.31
2023-04-10T18:28:24.501Z,100616.56
2023-04-10T18:30:56.867Z,100607.88
2023-04-10T18:33:26.623Z,100613.72
2023-04-10T18:35:57.420Z,100610.22
2023-04-10T18:38:27.292Z,100591.97
2023-04-10T18:41:00.460Z,100610.13
2023-04-10T18:43:30.160Z,100596.31
2023-04-10T18:46:00.108Z,100598.72
2023-04-10T18:48:29.669Z,100585.72
2023-04-10T18:50:59.228Z,100582.28
2023-04-10T18:53:28.694Z,100591.69
2023-04-10T18:56:00.759Z,100553.56
2023-04-10T18:58:32.355Z,100535.53
2023-04-10T19:01:01.955Z,100550.06
2023-04-10T19:03:31.820Z,100541.53
2023-04-10T19:06:01.506Z,100531.88
2023-04-10T19:08:31.054Z,100529.28
2023-04-10T19:11:06.614Z,100539.50
2023-04-10T19:13:36.486Z,100535.78
2023-04-10T19:16:06.978Z,100498.81
2023-04-10T19:18:36.485Z,100503.06
2023-04-10T19:21:06.069Z,100507.34
2023-04-10T19:23:36.803Z,100515.13
2023-04-10T19:26:09.904Z,100531.34
2023-04-10T19:28:39.700Z,100529.53
2023-04-10T19:31:09.670Z,100508.03
2023-04-10T19:33:39.214Z,100510.63
2023-04-10T19:36:09.817Z,100519.94
2023-04-10T19:38:41.058Z,100497.44
2023-04-10T19:41:18.746Z,100451.66
2023-04-10T19:43:48.435Z,100444.72
2023-04-10T19:46:21.415Z,100439.59
2023-04-10T19:48:52.099Z,100441.28
2023-04-10T19:51:21.643Z,100417.03
2023-04-10T19:53:51.231Z,100419.66
2023-04-10T19:56:23.347Z,100405.03
2023-04-10T19:58:52.914Z,100417.66
2023-04-10T20:01:24.403Z,100401.34
2023-04-10T20:03:54.277Z,100385.84
2023-04-10T20:06:24.294Z,100388.34
2023-04-10T20:08:54.137Z,100384.84
2023-04-10T20:11:30.705Z,100348.78
2023-04-10T20:14:00.283Z,100374.59
2023-04-10T20:16:29.859Z,100359.19
2023-04-10T20:18:59.404Z,100380.72
2023-04-10T20:21:29.394Z,100367.66
2023-04-10T20:23:59.167Z,100375.38
2023-04-10T20:26:31.311Z,100357.19
2023-04-10T20:29:01.139Z,100340.81
2023-04-10T20:31:31.653Z,100321.84
2023-04-10T20:34:02.930Z,100319.16
2023-04-10T20:36:32.504Z,100308.78
2023-04-10T20:39:02.009Z,100292.34
2023-04-10T20:41:34.109Z,100300.88
2023-04-10T20:44:03.792Z,100312.06
2023-04-10T20:46:33.329Z,100309.44
2023-04-10T20:49:02.864Z,100292.09
2023-04-10T20:51:33.789Z,100302.47
2023-04-10T20:54:04.574Z,100285.28
2023-04-10T20:56:43.461Z,100287.19
2023-04-10T20:59:13.724Z,100255.34
2023-04-10T21:01:43.304Z,100296.44
2023-04-10T21:04:12.899Z,100284.34
2023-04-10T21:06:42.369Z,100261.13
2023-04-10T21:09:11.955Z,100255.13
2023-04-10T21:11:44.190Z,100250.63
2023-04-10T21:14:13.800Z,100262.63
2023-04-10T21:16:45.953Z,100259.16
2023-04-10T21:19:16.133Z,100264.31
2023-04-10T21:21:45.694Z,100270.28
2023-04-10T21:24:15.234Z,100265.06
2023-04-10T21:26:47.279Z,100246.19
2023-04-10T21:29:16.742Z,100277.06
2023-04-10T21:31:46.772Z,100269.03
2023-04-10T21:34:17.442Z,100253.44
2023-04-10T21:36:46.909Z,100259.38
2023-04-10T21:39:16.461Z,100243.63
2023-04-10T21:41:48.608Z,100223.84
2023-04-10T21:44:18.183Z,100218.53
2023-04-10T21:46:47.689Z,100213.31
2023-04-10T21:49:17.196Z,100186.47
2023-04-10T21:51:46.700Z,100152.63
2023-04-10T21:54:16.221Z,100123.84
2023-04-10T21:56:48.356Z,100017.56
2023-04-10T21:59:17.837Z,99953.59
2023-04-10T22:01:47.471Z,99928.41
2023-04-10T22:04:17.158Z,99889.38
2023-04-10T22:06:46.719Z,99849.50
2023-04-10T22:09:17.571Z,99831.88
2023-04-10T22:11:49.635Z,99839.41
2023-04-10T22:14:21.339Z,99851.06
2023-04-10T22:16:51.062Z,99860.13
2023-04-10T22:19:20.583Z,99870.91
2023-04-10T22:21:50.183Z,99893.16
2023-04-10T22:24:19.675Z,99921.25
2023-04-10T22:26:51.734Z,99946.88
2023-04-10T22:29:21.924Z,99987.69
2023-04-10T22:31:51.447Z,100073.06
2023-04-10T22:34:21.139Z,100135.03
2023-04-10T22:36:51.975Z,100241.66
2023-04-10T22:39:21.623Z,100356.75
2023-04-10T22:41:53.766Z,100498.91
2023-04-10T22:44:23.312Z,100620.59
2023-04-10T22:46:52.800Z,100717.75
2023-04-10T22:49:22.330Z,100805.59
2023-04-10T22:51:51.862Z,100899.75
2023-04-10T22:54:21.375Z,100960.47
2023-04-10T22:56:53.473Z,100968.28
2023-04-10T22:59:23.002Z,101003.06
2023-04-10T23:01:52.554Z,101019.16
2023-04-10T23:04:22.203Z,101048.00
2023-04-10T23:06:51.747Z,101059.09
2023-04-10T23:09:21.436Z,101067.38
2023-04-10T23:11:53.752Z,101033.84
2023-04-10T23:14:23.490Z,100962.56
2023-04-10T23:16:53.063Z,100877.91
2023-04-10T23:19:22.631Z,100839.19
2023-04-10T23:21:53.673Z,100788.22
2023-04-10T23:24:23.198Z,100769.59
2023-04-10T23:26:55.281Z,100745.28
2023-04-10T23:29:24.863Z,100741.94
2023-04-10T23:31:54.372Z,100743.53
2023-04-10T23:34:23.904Z,100750.53
2023-04-10T23:36:53.429Z,100738.72
2023-04-10T23:39:23.106Z,100739.38
2023-04-10T23:41:56.025Z,100714.94
2023-04-10T23:44:25.732Z,100714.59
2023-04-10T23:46:55.332Z,100705.19
2023-04-10T23:49:24.912Z,100709.63
2023-04-10T23:51:54.376Z,100716.41
2023-04-10T23:54:23.917Z,100711.25
2023-04-10T23:56:56.013Z,100692.31
2023-04-10T23:59:25.555Z,100690.84
